Terminal Aerodrome Forecast
Issued by NWS

Home | Current Version | Previous Version | Text Only | Print | Product List | Glossary On
Versions: 1 2 3 4 5 6 7 8 9 10 11 12 13 14 15 16 17 18 19 20 21 22 23 24 25 26 27 28 29 30
541
FTUS43 KLOT 232101 AAB
TAFDPA
TAF AMD
KDPA 232101Z 2321/2418 28007KT P6SM FEW011 BKN150
     FM240400 30014G22KT 6SM -RA SCT025 OVC035
     FM240600 26012KT 4SM -RA SCT008 OVC012
     FM241500 30013G24KT 5SM -SHRA SCT008 OVC012=

USA.gov is the U.S. government's official web portal to all federal, state and local government web resources and services.